sensor_id;sensor_type;location;lat;lon;timestamp;P1;durP1;ratioP1;P2;durP2;ratioP2
20966;SDS011;10642;50.682;18.510;2023-06-26T00:01:06;11.23;;;6.47;;
20966;SDS011;10642;50.682;18.510;2023-06-26T00:03:33;9.53;;;6.53;;
20966;SDS011;10642;50.682;18.510;2023-06-26T00:06:00;11.63;;;7.37;;
20966;SDS011;10642;50.682;18.510;2023-06-26T00:08:28;10.50;;;7.13;;
20966;SDS011;10642;50.682;18.510;2023-06-26T00:10:55;11.60;;;6.70;;
20966;SDS011;10642;50.682;18.510;2023-06-26T00:13:22;9.87;;;6.77;;
20966;SDS011;10642;50.682;18.510;2023-06-26T00:15:50;10.90;;;6.60;;
20966;SDS011;10642;50.682;18.510;2023-06-26T00:18:17;13.20;;;7.13;;
20966;SDS011;10642;50.682;18.510;2023-06-26T00:20:44;13.07;;;6.73;;
20966;SDS011;10642;50.682;18.510;2023-06-26T00:23:11;11.27;;;6.50;;
20966;SDS011;10642;50.682;18.510;2023-06-26T00:25:39;8.70;;;5.83;;
20966;SDS011;10642;50.682;18.510;2023-06-26T00:28:07;9.20;;;5.97;;
20966;SDS011;10642;50.682;18.510;2023-06-26T00:30:36;11.47;;;7.33;;
20966;SDS011;10642;50.682;18.510;2023-06-26T00:33:04;13.67;;;7.80;;
20966;SDS011;10642;50.682;18.510;2023-06-26T00:35:31;12.50;;;8.00;;
20966;SDS011;10642;50.682;18.510;2023-06-26T00:37:58;13.20;;;6.60;;
20966;SDS011;10642;50.682;18.510;2023-06-26T00:40:25;9.40;;;5.83;;
20966;SDS011;10642;50.682;18.510;2023-06-26T00:42:53;11.93;;;6.60;;
20966;SDS011;10642;50.682;18.510;2023-06-26T00:45:20;11.53;;;6.60;;
20966;SDS011;10642;50.682;18.510;2023-06-26T00:48:07;13.90;;;6.77;;
20966;SDS011;10642;50.682;18.510;2023-06-26T00:50:35;10.57;;;7.10;;
20966;SDS011;10642;50.682;18.510;2023-06-26T00:53:02;10.33;;;6.97;;
20966;SDS011;10642;50.682;18.510;2023-06-26T00:55:29;11.73;;;6.90;;
20966;SDS011;10642;50.682;18.510;2023-06-26T00:57:56;11.60;;;6.90;;
20966;SDS011;10642;50.682;18.510;2023-06-26T01:00:23;11.87;;;7.40;;
20966;SDS011;10642;50.682;18.510;2023-06-26T01:02:49;9.50;;;6.33;;
20966;SDS011;10642;50.682;18.510;2023-06-26T01:05:20;11.07;;;6.37;;
20966;SDS011;10642;50.682;18.510;2023-06-26T01:07:50;10.30;;;7.13;;
20966;SDS011;10642;50.682;18.510;2023-06-26T01:10:18;14.47;;;7.33;;
20966;SDS011;10642;50.682;18.510;2023-06-26T01:12:45;12.37;;;7.27;;
20966;SDS011;10642;50.682;18.510;2023-06-26T01:15:12;13.70;;;7.80;;
20966;SDS011;10642;50.682;18.510;2023-06-26T01:17:40;13.27;;;7.40;;
20966;SDS011;10642;50.682;18.510;2023-06-26T01:20:09;12.83;;;7.80;;
20966;SDS011;10642;50.682;18.510;2023-06-26T01:27:45;16.20;;;8.07;;
20966;SDS011;10642;50.682;18.510;2023-06-26T01:30:13;12.60;;;7.90;;
20966;SDS011;10642;50.682;18.510;2023-06-26T01:32:40;13.77;;;8.03;;
20966;SDS011;10642;50.682;18.510;2023-06-26T01:35:08;11.70;;;7.63;;
20966;SDS011;10642;50.682;18.510;2023-06-26T01:37:35;14.40;;;7.17;;
20966;SDS011;10642;50.682;18.510;2023-06-26T01:40:02;18.13;;;6.80;;
20966;SDS011;10642;50.682;18.510;2023-06-26T01:42:32;12.47;;;7.03;;
20966;SDS011;10642;50.682;18.510;2023-06-26T01:45:05;11.07;;;7.73;;
20966;SDS011;10642;50.682;18.510;2023-06-26T01:47:34;11.50;;;7.07;;
20966;SDS011;10642;50.682;18.510;2023-06-26T01:50:11;12.40;;;7.47;;
20966;SDS011;10642;50.682;18.510;2023-06-26T01:57:47;13.40;;;7.50;;
20966;SDS011;10642;50.682;18.510;2023-06-26T02:00:15;11.73;;;6.87;;
20966;SDS011;10642;50.682;18.510;2023-06-26T02:02:45;12.57;;;7.53;;
20966;SDS011;10642;50.682;18.510;2023-06-26T02:05:13;11.33;;;7.77;;
20966;SDS011;10642;50.682;18.510;2023-06-26T02:07:40;14.77;;;8.23;;
20966;SDS011;10642;50.682;18.510;2023-06-26T02:10:07;12.43;;;7.30;;
20966;SDS011;10642;50.682;18.510;2023-06-26T02:12:34;11.27;;;7.33;;
20966;SDS011;10642;50.682;18.510;2023-06-26T02:15:02;15.60;;;7.63;;
20966;SDS011;10642;50.682;18.510;2023-06-26T02:17:30;11.33;;;8.03;;
20966;SDS011;10642;50.682;18.510;2023-06-26T02:19:57;14.33;;;8.20;;
20966;SDS011;10642;50.682;18.510;2023-06-26T02:22:23;13.63;;;8.30;;
20966;SDS011;10642;50.682;18.510;2023-06-26T02:24:50;14.47;;;7.67;;
20966;SDS011;10642;50.682;18.510;2023-06-26T02:27:17;14.63;;;8.23;;
20966;SDS011;10642;50.682;18.510;2023-06-26T02:29:44;10.63;;;7.43;;
20966;SDS011;10642;50.682;18.510;2023-06-26T02:32:12;15.03;;;8.53;;
20966;SDS011;10642;50.682;18.510;2023-06-26T02:34:39;11.87;;;7.57;;
20966;SDS011;10642;50.682;18.510;2023-06-26T02:37:06;13.33;;;7.87;;
20966;SDS011;10642;50.682;18.510;2023-06-26T02:39:34;17.30;;;8.63;;
20966;SDS011;10642;50.682;18.510;2023-06-26T02:42:01;12.10;;;7.87;;
20966;SDS011;10642;50.682;18.510;2023-06-26T02:44:29;14.50;;;7.83;;
20966;SDS011;10642;50.682;18.510;2023-06-26T02:46:56;14.77;;;8.50;;
20966;SDS011;10642;50.682;18.510;2023-06-26T02:49:23;13.97;;;7.90;;
20966;SDS011;10642;50.682;18.510;2023-06-26T02:51:50;14.20;;;6.70;;
20966;SDS011;10642;50.682;18.510;2023-06-26T02:54:24;12.20;;;7.03;;
20966;SDS011;10642;50.682;18.510;2023-06-26T02:56:55;14.50;;;7.50;;
20966;SDS011;10642;50.682;18.510;2023-06-26T02:59:26;12.20;;;8.00;;
20966;SDS011;10642;50.682;18.510;2023-06-26T03:01:54;15.27;;;7.90;;
20966;SDS011;10642;50.682;18.510;2023-06-26T03:04:27;14.33;;;7.60;;
20966;SDS011;10642;50.682;18.510;2023-06-26T03:06:54;12.47;;;7.23;;
20966;SDS011;10642;50.682;18.510;2023-06-26T03:09:21;18.17;;;7.80;;
20966;SDS011;10642;50.682;18.510;2023-06-26T03:11:49;13.23;;;7.23;;
20966;SDS011;10642;50.682;18.510;2023-06-26T03:14:16;10.30;;;7.30;;
20966;SDS011;10642;50.682;18.510;2023-06-26T03:16:43;11.57;;;7.10;;
20966;SDS011;10642;50.682;18.510;2023-06-26T03:19:10;14.07;;;7.77;;
20966;SDS011;10642;50.682;18.510;2023-06-26T03:21:55;11.53;;;7.23;;
20966;SDS011;10642;50.682;18.510;2023-06-26T03:24:22;15.13;;;7.30;;
20966;SDS011;10642;50.682;18.510;2023-06-26T03:26:50;15.23;;;8.13;;
20966;SDS011;10642;50.682;18.510;2023-06-26T03:29:18;17.57;;;8.17;;
20966;SDS011;10642;50.682;18.510;2023-06-26T03:31:45;10.60;;;7.07;;
20966;SDS011;10642;50.682;18.510;2023-06-26T03:34:12;11.57;;;7.93;;
20966;SDS011;10642;50.682;18.510;2023-06-26T03:36:38;16.47;;;8.47;;
20966;SDS011;10642;50.682;18.510;2023-06-26T03:39:05;11.90;;;7.23;;
20966;SDS011;10642;50.682;18.510;2023-06-26T03:41:32;16.50;;;7.77;;
20966;SDS011;10642;50.682;18.510;2023-06-26T03:43:59;11.30;;;7.23;;
20966;SDS011;10642;50.682;18.510;2023-06-26T03:46:34;12.37;;;8.17;;
20966;SDS011;10642;50.682;18.510;2023-06-26T03:49:01;15.73;;;9.33;;
20966;SDS011;10642;50.682;18.510;2023-06-26T03:51:28;14.77;;;8.87;;
20966;SDS011;10642;50.682;18.510;2023-06-26T03:53:55;16.17;;;8.33;;
20966;SDS011;10642;50.682;18.510;2023-06-26T03:56:22;13.03;;;8.87;;
20966;SDS011;10642;50.682;18.510;2023-06-26T03:58:48;16.40;;;9.57;;
20966;SDS011;10642;50.682;18.510;2023-06-26T04:01:15;16.90;;;9.40;;
20966;SDS011;10642;50.682;18.510;2023-06-26T04:03:43;14.13;;;9.33;;
20966;SDS011;10642;50.682;18.510;2023-06-26T04:06:11;21.37;;;9.47;;
20966;SDS011;10642;50.682;18.510;2023-06-26T04:08:38;17.10;;;9.10;;
20966;SDS011;10642;50.682;18.510;2023-06-26T04:11:05;17.80;;;10.60;;
20966;SDS011;10642;50.682;18.510;2023-06-26T04:13:32;15.77;;;10.07;;
20966;SDS011;10642;50.682;18.510;2023-06-26T04:15:58;21.83;;;11.87;;
20966;SDS011;10642;50.682;18.510;2023-06-26T04:18:25;19.50;;;11.20;;
20966;SDS011;10642;50.682;18.510;2023-06-26T04:21:11;23.37;;;11.47;;
20966;SDS011;10642;50.682;18.510;2023-06-26T04:23:39;17.27;;;10.90;;
20966;SDS011;10642;50.682;18.510;2023-06-26T04:26:07;18.47;;;11.97;;
20966;SDS011;10642;50.682;18.510;2023-06-26T04:28:34;27.93;;;11.90;;
20966;SDS011;10642;50.682;18.510;2023-06-26T04:31:01;22.77;;;11.87;;
20966;SDS011;10642;50.682;18.510;2023-06-26T04:33:30;19.20;;;11.47;;
20966;SDS011;10642;50.682;18.510;2023-06-26T04:35:57;16.73;;;10.40;;
20966;SDS011;10642;50.682;18.510;2023-06-26T04:38:24;17.93;;;11.30;;
20966;SDS011;10642;50.682;18.510;2023-06-26T04:40:51;21.73;;;11.30;;
20966;SDS011;10642;50.682;18.510;2023-06-26T04:43:17;18.73;;;10.33;;
20966;SDS011;10642;50.682;18.510;2023-06-26T04:45:44;17.77;;;11.03;;
20966;SDS011;10642;50.682;18.510;2023-06-26T04:48:11;19.40;;;10.40;;
20966;SDS011;10642;50.682;18.510;2023-06-26T04:50:39;15.57;;;10.43;;
20966;SDS011;10642;50.682;18.510;2023-06-26T04:53:07;18.90;;;10.90;;
20966;SDS011;10642;50.682;18.510;2023-06-26T04:55:34;15.80;;;10.40;;
20966;SDS011;10642;50.682;18.510;2023-06-26T04:58:05;16.23;;;11.00;;
20966;SDS011;10642;50.682;18.510;2023-06-26T05:00:31;16.80;;;9.87;;
20966;SDS011;10642;50.682;18.510;2023-06-26T05:03:02;18.73;;;10.57;;
20966;SDS011;10642;50.682;18.510;2023-06-26T05:05:29;16.50;;;10.30;;
20966;SDS011;10642;50.682;18.510;2023-06-26T05:07:56;18.67;;;11.23;;
20966;SDS011;10642;50.682;18.510;2023-06-26T05:10:23;16.70;;;11.20;;
20966;SDS011;10642;50.682;18.510;2023-06-26T05:12:50;16.60;;;10.67;;
20966;SDS011;10642;50.682;18.510;2023-06-26T05:15:17;22.87;;;12.10;;
20966;SDS011;10642;50.682;18.510;2023-06-26T05:17:44;17.07;;;11.30;;
20966;SDS011;10642;50.682;18.510;2023-06-26T05:20:11;19.10;;;11.23;;
20966;SDS011;10642;50.682;18.510;2023-06-26T05:22:38;20.37;;;12.03;;
20966;SDS011;10642;50.682;18.510;2023-06-26T05:25:07;19.47;;;12.17;;
20966;SDS011;10642;50.682;18.510;2023-06-26T05:27:35;16.20;;;12.03;;
20966;SDS011;10642;50.682;18.510;2023-06-26T05:30:02;19.37;;;12.40;;
20966;SDS011;10642;50.682;18.510;2023-06-26T05:32:29;19.67;;;11.47;;
20966;SDS011;10642;50.682;18.510;2023-06-26T05:34:57;16.80;;;10.60;;
20966;SDS011;10642;50.682;18.510;2023-06-26T05:37:25;15.57;;;11.20;;
20966;SDS011;10642;50.682;18.510;2023-06-26T05:39:53;17.07;;;10.80;;
20966;SDS011;10642;50.682;18.510;2023-06-26T05:42:20;16.07;;;10.47;;
20966;SDS011;10642;50.682;18.510;2023-06-26T05:44:47;18.03;;;10.97;;
20966;SDS011;10642;50.682;18.510;2023-06-26T05:47:14;15.93;;;10.00;;
20966;SDS011;10642;50.682;18.510;2023-06-26T05:49:41;17.03;;;10.87;;
20966;SDS011;10642;50.682;18.510;2023-06-26T05:52:08;20.40;;;11.53;;
20966;SDS011;10642;50.682;18.510;2023-06-26T05:54:35;16.30;;;10.53;;
20966;SDS011;10642;50.682;18.510;2023-06-26T05:57:02;13.83;;;10.67;;
20966;SDS011;10642;50.682;18.510;2023-06-26T05:59:31;15.67;;;9.73;;
20966;SDS011;10642;50.682;18.510;2023-06-26T06:01:58;16.80;;;11.07;;
20966;SDS011;10642;50.682;18.510;2023-06-26T06:04:25;17.57;;;10.57;;
20966;SDS011;10642;50.682;18.510;2023-06-26T06:06:52;18.10;;;10.80;;
20966;SDS011;10642;50.682;18.510;2023-06-26T06:09:19;17.13;;;9.27;;
20966;SDS011;10642;50.682;18.510;2023-06-26T06:11:46;14.47;;;9.60;;
20966;SDS011;10642;50.682;18.510;2023-06-26T06:14:12;16.80;;;10.10;;
20966;SDS011;10642;50.682;18.510;2023-06-26T06:16:39;16.13;;;9.73;;
20966;SDS011;10642;50.682;18.510;2023-06-26T06:19:06;14.37;;;9.50;;
20966;SDS011;10642;50.682;18.510;2023-06-26T06:21:34;17.37;;;9.50;;
20966;SDS011;10642;50.682;18.510;2023-06-26T06:24:01;16.97;;;9.17;;
20966;SDS011;10642;50.682;18.510;2023-06-26T06:26:28;14.10;;;9.30;;
20966;SDS011;10642;50.682;18.510;2023-06-26T06:28:55;13.17;;;9.17;;
20966;SDS011;10642;50.682;18.510;2023-06-26T06:31:22;13.30;;;8.80;;
20966;SDS011;10642;50.682;18.510;2023-06-26T06:33:49;12.97;;;8.30;;
20966;SDS011;10642;50.682;18.510;2023-06-26T06:36:15;12.23;;;7.33;;
20966;SDS011;10642;50.682;18.510;2023-06-26T06:38:43;13.93;;;8.50;;
20966;SDS011;10642;50.682;18.510;2023-06-26T06:41:10;11.57;;;7.70;;
20966;SDS011;10642;50.682;18.510;2023-06-26T06:43:37;14.20;;;7.60;;
20966;SDS011;10642;50.682;18.510;2023-06-26T07:02:03;14.63;;;8.50;;
20966;SDS011;10642;50.682;18.510;2023-06-26T07:04:30;16.93;;;8.07;;
20966;SDS011;10642;50.682;18.510;2023-06-26T07:06:57;14.87;;;6.83;;
20966;SDS011;10642;50.682;18.510;2023-06-26T07:09:24;9.80;;;6.63;;
20966;SDS011;10642;50.682;18.510;2023-06-26T07:11:51;9.17;;;6.80;;
20966;SDS011;10642;50.682;18.510;2023-06-26T07:14:18;11.63;;;7.17;;
20966;SDS011;10642;50.682;18.510;2023-06-26T07:16:45;8.80;;;6.07;;
20966;SDS011;10642;50.682;18.510;2023-06-26T07:19:12;9.80;;;5.67;;
20966;SDS011;10642;50.682;18.510;2023-06-26T07:21:39;7.57;;;5.47;;
20966;SDS011;10642;50.682;18.510;2023-06-26T07:24:05;13.33;;;7.07;;
20966;SDS011;10642;50.682;18.510;2023-06-26T07:26:32;9.90;;;7.00;;
20966;SDS011;10642;50.682;18.510;2023-06-26T07:29:10;9.83;;;6.80;;
20966;SDS011;10642;50.682;18.510;2023-06-26T07:31:37;8.83;;;5.67;;
20966;SDS011;10642;50.682;18.510;2023-06-26T07:34:04;10.23;;;5.53;;
20966;SDS011;10642;50.682;18.510;2023-06-26T07:36:31;8.47;;;5.47;;
20966;SDS011;10642;50.682;18.510;2023-06-26T07:38:58;8.20;;;5.27;;
20966;SDS011;10642;50.682;18.510;2023-06-26T07:41:25;12.07;;;5.80;;
20966;SDS011;10642;50.682;18.510;2023-06-26T07:43:52;9.00;;;5.20;;
20966;SDS011;10642;50.682;18.510;2023-06-26T07:46:18;9.13;;;5.97;;
20966;SDS011;10642;50.682;18.510;2023-06-26T07:48:46;8.03;;;5.53;;
20966;SDS011;10642;50.682;18.510;2023-06-26T07:51:13;8.33;;;5.60;;
20966;SDS011;10642;50.682;18.510;2023-06-26T07:53:40;7.37;;;5.20;;
20966;SDS011;10642;50.682;18.510;2023-06-26T07:56:06;7.53;;;5.53;;
20966;SDS011;10642;50.682;18.510;2023-06-26T07:58:33;8.17;;;4.93;;
20966;SDS011;10642;50.682;18.510;2023-06-26T08:01:02;11.43;;;5.50;;
20966;SDS011;10642;50.682;18.510;2023-06-26T08:03:29;11.00;;;4.93;;
20966;SDS011;10642;50.682;18.510;2023-06-26T08:06:01;8.83;;;4.90;;
20966;SDS011;10642;50.682;18.510;2023-06-26T08:08:28;7.53;;;4.00;;
20966;SDS011;10642;50.682;18.510;2023-06-26T08:10:55;9.97;;;4.77;;
20966;SDS011;10642;50.682;18.510;2023-06-26T08:13:22;10.80;;;5.27;;
20966;SDS011;10642;50.682;18.510;2023-06-26T08:15:49;7.37;;;4.40;;
20966;SDS011;10642;50.682;18.510;2023-06-26T08:18:16;6.67;;;4.30;;
20966;SDS011;10642;50.682;18.510;2023-06-26T08:20:43;6.20;;;4.07;;
20966;SDS011;10642;50.682;18.510;2023-06-26T08:23:10;7.43;;;4.47;;
20966;SDS011;10642;50.682;18.510;2023-06-26T08:25:37;8.30;;;4.70;;
20966;SDS011;10642;50.682;18.510;2023-06-26T08:28:04;6.60;;;4.43;;
20966;SDS011;10642;50.682;18.510;2023-06-26T08:30:32;7.53;;;4.73;;
20966;SDS011;10642;50.682;18.510;2023-06-26T08:32:59;6.47;;;4.50;;
20966;SDS011;10642;50.682;18.510;2023-06-26T08:35:26;5.83;;;4.60;;
20966;SDS011;10642;50.682;18.510;2023-06-26T08:37:53;8.57;;;4.83;;
20966;SDS011;10642;50.682;18.510;2023-06-26T08:40:21;7.30;;;4.40;;
20966;SDS011;10642;50.682;18.510;2023-06-26T08:42:48;6.27;;;4.47;;
20966;SDS011;10642;50.682;18.510;2023-06-26T08:45:19;6.53;;;4.23;;
20966;SDS011;10642;50.682;18.510;2023-06-26T08:47:46;6.73;;;4.57;;
20966;SDS011;10642;50.682;18.510;2023-06-26T08:50:14;6.03;;;3.70;;
20966;SDS011;10642;50.682;18.510;2023-06-26T08:52:46;7.73;;;3.87;;
20966;SDS011;10642;50.682;18.510;2023-06-26T08:55:16;10.17;;;4.77;;
20966;SDS011;10642;50.682;18.510;2023-06-26T08:57:45;7.00;;;4.70;;
20966;SDS011;10642;50.682;18.510;2023-06-26T09:00:13;10.10;;;4.43;;
20966;SDS011;10642;50.682;18.510;2023-06-26T09:02:41;6.23;;;4.33;;
20966;SDS011;10642;50.682;18.510;2023-06-26T09:05:11;9.77;;;4.77;;
20966;SDS011;10642;50.682;18.510;2023-06-26T09:07:38;7.10;;;4.00;;
20966;SDS011;10642;50.682;18.510;2023-06-26T09:10:05;7.53;;;4.07;;
20966;SDS011;10642;50.682;18.510;2023-06-26T09:12:32;5.37;;;3.83;;
20966;SDS011;10642;50.682;18.510;2023-06-26T09:15:00;8.47;;;4.17;;
20966;SDS011;10642;50.682;18.510;2023-06-26T09:17:30;7.37;;;4.17;;
20966;SDS011;10642;50.682;18.510;2023-06-26T09:19:57;8.33;;;4.43;;
20966;SDS011;10642;50.682;18.510;2023-06-26T09:22:24;5.53;;;4.20;;
20966;SDS011;10642;50.682;18.510;2023-06-26T09:24:51;7.87;;;4.23;;
20966;SDS011;10642;50.682;18.510;2023-06-26T09:27:19;8.03;;;4.47;;
20966;SDS011;10642;50.682;18.510;2023-06-26T09:29:45;7.67;;;4.13;;
20966;SDS011;10642;50.682;18.510;2023-06-26T09:32:13;6.50;;;4.13;;
20966;SDS011;10642;50.682;18.510;2023-06-26T09:34:41;7.90;;;5.20;;
20966;SDS011;10642;50.682;18.510;2023-06-26T09:37:08;7.20;;;4.63;;
20966;SDS011;10642;50.682;18.510;2023-06-26T09:39:35;5.60;;;4.03;;
20966;SDS011;10642;50.682;18.510;2023-06-26T09:42:02;11.13;;;4.83;;
20966;SDS011;10642;50.682;18.510;2023-06-26T09:44:33;5.70;;;4.33;;
20966;SDS011;10642;50.682;18.510;2023-06-26T09:47:01;7.43;;;4.80;;
20966;SDS011;10642;50.682;18.510;2023-06-26T09:49:28;5.93;;;4.30;;
20966;SDS011;10642;50.682;18.510;2023-06-26T09:51:55;13.53;;;9.77;;
20966;SDS011;10642;50.682;18.510;2023-06-26T09:54:22;6.73;;;4.27;;
20966;SDS011;10642;50.682;18.510;2023-06-26T09:56:50;8.27;;;4.70;;
20966;SDS011;10642;50.682;18.510;2023-06-26T09:59:17;9.20;;;6.83;;
20966;SDS011;10642;50.682;18.510;2023-06-26T10:01:45;5.07;;;4.00;;
20966;SDS011;10642;50.682;18.510;2023-06-26T10:04:12;5.93;;;3.77;;
20966;SDS011;10642;50.682;18.510;2023-06-26T10:06:49;8.80;;;4.57;;
20966;SDS011;10642;50.682;18.510;2023-06-26T10:09:16;7.17;;;4.50;;
20966;SDS011;10642;50.682;18.510;2023-06-26T10:14:11;7.03;;;4.37;;
20966;SDS011;10642;50.682;18.510;2023-06-26T10:16:44;7.17;;;4.23;;
20966;SDS011;10642;50.682;18.510;2023-06-26T10:19:11;5.03;;;3.90;;
20966;SDS011;10642;50.682;18.510;2023-06-26T10:21:39;7.30;;;4.43;;
20966;SDS011;10642;50.682;18.510;2023-06-26T10:24:06;5.43;;;4.10;;
20966;SDS011;10642;50.682;18.510;2023-06-26T10:26:35;5.90;;;3.93;;
20966;SDS011;10642;50.682;18.510;2023-06-26T10:29:05;10.03;;;4.43;;
20966;SDS011;10642;50.682;18.510;2023-06-26T10:31:32;7.50;;;4.13;;
20966;SDS011;10642;50.682;18.510;2023-06-26T10:34:01;8.20;;;3.67;;
20966;SDS011;10642;50.682;18.510;2023-06-26T10:36:29;6.40;;;4.33;;
20966;SDS011;10642;50.682;18.510;2023-06-26T10:38:58;14.83;;;4.30;;
20966;SDS011;10642;50.682;18.510;2023-06-26T10:41:25;7.83;;;4.17;;
20966;SDS011;10642;50.682;18.510;2023-06-26T10:46:27;5.90;;;4.20;;
20966;SDS011;10642;50.682;18.510;2023-06-26T10:48:57;6.07;;;4.37;;
20966;SDS011;10642;50.682;18.510;2023-06-26T10:51:25;6.97;;;4.20;;
20966;SDS011;10642;50.682;18.510;2023-06-26T10:53:56;7.80;;;3.80;;
20966;SDS011;10642;50.682;18.510;2023-06-26T10:59:19;5.43;;;3.90;;
20966;SDS011;10642;50.682;18.510;2023-06-26T11:01:47;5.07;;;3.70;;
20966;SDS011;10642;50.682;18.510;2023-06-26T11:04:35;5.60;;;4.10;;
20966;SDS011;10642;50.682;18.510;2023-06-26T11:15:26;6.53;;;3.70;;
20966;SDS011;10642;50.682;18.510;2023-06-26T11:17:54;5.60;;;3.53;;
20966;SDS011;10642;50.682;18.510;2023-06-26T11:20:21;5.13;;;3.63;;
20966;SDS011;10642;50.682;18.510;2023-06-26T11:22:48;5.53;;;3.33;;
20966;SDS011;10642;50.682;18.510;2023-06-26T11:25:19;5.20;;;2.90;;
20966;SDS011;10642;50.682;18.510;2023-06-26T11:27:46;6.20;;;3.97;;
20966;SDS011;10642;50.682;18.510;2023-06-26T11:30:22;5.77;;;4.20;;
20966;SDS011;10642;50.682;18.510;2023-06-26T11:32:49;9.80;;;5.17;;
20966;SDS011;10642;50.682;18.510;2023-06-26T11:35:23;6.13;;;4.17;;
20966;SDS011;10642;50.682;18.510;2023-06-26T11:37:56;5.27;;;3.83;;
20966;SDS011;10642;50.682;18.510;2023-06-26T11:40:24;9.43;;;3.93;;
20966;SDS011;10642;50.682;18.510;2023-06-26T11:42:53;6.47;;;4.17;;
20966;SDS011;10642;50.682;18.510;2023-06-26T11:45:20;5.73;;;4.50;;
20966;SDS011;10642;50.682;18.510;2023-06-26T11:47:47;7.10;;;4.70;;
20966;SDS011;10642;50.682;18.510;2023-06-26T11:50:15;10.17;;;4.30;;
20966;SDS011;10642;50.682;18.510;2023-06-26T11:52:45;6.50;;;4.60;;
20966;SDS011;10642;50.682;18.510;2023-06-26T11:55:12;6.63;;;4.57;;
20966;SDS011;10642;50.682;18.510;2023-06-26T11:57:39;7.17;;;4.37;;
20966;SDS011;10642;50.682;18.510;2023-06-26T12:00:12;8.03;;;4.30;;
20966;SDS011;10642;50.682;18.510;2023-06-26T12:02:40;6.40;;;4.40;;
20966;SDS011;10642;50.682;18.510;2023-06-26T12:05:07;6.67;;;4.47;;
20966;SDS011;10642;50.682;18.510;2023-06-26T12:07:34;9.43;;;4.63;;
20966;SDS011;10642;50.682;18.510;2023-06-26T12:10:03;7.33;;;4.77;;
20966;SDS011;10642;50.682;18.510;2023-06-26T12:12:31;6.40;;;4.10;;
20966;SDS011;10642;50.682;18.510;2023-06-26T12:14:58;5.53;;;4.07;;
20966;SDS011;10642;50.682;18.510;2023-06-26T12:17:26;8.40;;;5.07;;
20966;SDS011;10642;50.682;18.510;2023-06-26T12:19:54;6.40;;;4.50;;
20966;SDS011;10642;50.682;18.510;2023-06-26T12:22:21;6.47;;;4.80;;
20966;SDS011;10642;50.682;18.510;2023-06-26T12:24:48;7.67;;;4.77;;
20966;SDS011;10642;50.682;18.510;2023-06-26T12:27:15;7.27;;;4.23;;
20966;SDS011;10642;50.682;18.510;2023-06-26T12:30:02;7.13;;;4.57;;
20966;SDS011;10642;50.682;18.510;2023-06-26T12:32:30;5.63;;;4.30;;
20966;SDS011;10642;50.682;18.510;2023-06-26T12:34:57;9.07;;;4.40;;
20966;SDS011;10642;50.682;18.510;2023-06-26T12:37:24;7.00;;;4.47;;
20966;SDS011;10642;50.682;18.510;2023-06-26T12:39:57;7.33;;;5.10;;
20966;SDS011;10642;50.682;18.510;2023-06-26T12:42:25;7.43;;;5.53;;
20966;SDS011;10642;50.682;18.510;2023-06-26T12:44:53;7.73;;;5.00;;
20966;SDS011;10642;50.682;18.510;2023-06-26T12:47:25;11.77;;;5.47;;
20966;SDS011;10642;50.682;18.510;2023-06-26T12:49:54;6.17;;;4.73;;
20966;SDS011;10642;50.682;18.510;2023-06-26T12:52:21;11.07;;;5.57;;
20966;SDS011;10642;50.682;18.510;2023-06-26T12:54:51;9.20;;;4.93;;
20966;SDS011;10642;50.682;18.510;2023-06-26T12:57:19;6.97;;;4.87;;
20966;SDS011;10642;50.682;18.510;2023-06-26T12:59:46;7.73;;;4.80;;
20966;SDS011;10642;50.682;18.510;2023-06-26T13:02:12;6.77;;;5.00;;
20966;SDS011;10642;50.682;18.510;2023-06-26T13:04:40;8.37;;;4.90;;
20966;SDS011;10642;50.682;18.510;2023-06-26T13:07:07;6.43;;;4.97;;
20966;SDS011;10642;50.682;18.510;2023-06-26T13:09:35;7.07;;;5.43;;
20966;SDS011;10642;50.682;18.510;2023-06-26T13:12:03;8.63;;;5.53;;
20966;SDS011;10642;50.682;18.510;2023-06-26T13:14:31;7.13;;;5.17;;
20966;SDS011;10642;50.682;18.510;2023-06-26T13:16:58;7.50;;;5.23;;
20966;SDS011;10642;50.682;18.510;2023-06-26T13:19:25;6.13;;;4.73;;
20966;SDS011;10642;50.682;18.510;2023-06-26T13:21:52;12.00;;;5.80;;
20966;SDS011;10642;50.682;18.510;2023-06-26T13:24:19;7.27;;;5.20;;
20966;SDS011;10642;50.682;18.510;2023-06-26T13:26:46;10.23;;;5.40;;
20966;SDS011;10642;50.682;18.510;2023-06-26T13:29:13;8.03;;;4.97;;
20966;SDS011;10642;50.682;18.510;2023-06-26T13:31:40;7.83;;;4.57;;
20966;SDS011;10642;50.682;18.510;2023-06-26T13:34:07;6.90;;;5.03;;
20966;SDS011;10642;50.682;18.510;2023-06-26T13:36:34;6.20;;;4.80;;
20966;SDS011;10642;50.682;18.510;2023-06-26T13:39:01;7.00;;;4.70;;
20966;SDS011;10642;50.682;18.510;2023-06-26T13:41:29;6.73;;;4.80;;
20966;SDS011;10642;50.682;18.510;2023-06-26T13:43:56;6.00;;;4.30;;
20966;SDS011;10642;50.682;18.510;2023-06-26T13:46:43;7.57;;;4.83;;
20966;SDS011;10642;50.682;18.510;2023-06-26T13:49:10;7.70;;;4.80;;
20966;SDS011;10642;50.682;18.510;2023-06-26T13:51:37;7.60;;;4.80;;
20966;SDS011;10642;50.682;18.510;2023-06-26T13:54:04;7.70;;;4.37;;
20966;SDS011;10642;50.682;18.510;2023-06-26T13:56:31;5.73;;;4.30;;
20966;SDS011;10642;50.682;18.510;2023-06-26T13:58:58;8.13;;;5.50;;
20966;SDS011;10642;50.682;18.510;2023-06-26T14:01:25;8.13;;;4.50;;
20966;SDS011;10642;50.682;18.510;2023-06-26T14:03:52;6.77;;;3.83;;
20966;SDS011;10642;50.682;18.510;2023-06-26T14:06:19;6.00;;;4.20;;
20966;SDS011;10642;50.682;18.510;2023-06-26T14:08:46;7.33;;;5.10;;
20966;SDS011;10642;50.682;18.510;2023-06-26T14:11:13;6.37;;;4.50;;
20966;SDS011;10642;50.682;18.510;2023-06-26T14:13:40;6.20;;;4.40;;
20966;SDS011;10642;50.682;18.510;2023-06-26T14:16:07;6.93;;;4.87;;
20966;SDS011;10642;50.682;18.510;2023-06-26T14:18:33;8.53;;;4.57;;
20966;SDS011;10642;50.682;18.510;2023-06-26T14:21:01;7.40;;;4.43;;
20966;SDS011;10642;50.682;18.510;2023-06-26T14:23:29;8.63;;;4.70;;
20966;SDS011;10642;50.682;18.510;2023-06-26T14:25:56;6.60;;;4.53;;
20966;SDS011;10642;50.682;18.510;2023-06-26T14:28:23;6.67;;;4.83;;
20966;SDS011;10642;50.682;18.510;2023-06-26T14:30:50;5.77;;;4.17;;
20966;SDS011;10642;50.682;18.510;2023-06-26T14:33:16;6.37;;;4.23;;
20966;SDS011;10642;50.682;18.510;2023-06-26T14:35:43;7.53;;;4.80;;
20966;SDS011;10642;50.682;18.510;2023-06-26T14:38:10;8.10;;;4.10;;
20966;SDS011;10642;50.682;18.510;2023-06-26T14:40:37;9.03;;;4.83;;
20966;SDS011;10642;50.682;18.510;2023-06-26T14:43:05;10.53;;;4.47;;
20966;SDS011;10642;50.682;18.510;2023-06-26T14:45:32;7.20;;;3.97;;
20966;SDS011;10642;50.682;18.510;2023-06-26T14:48:00;8.13;;;4.60;;
20966;SDS011;10642;50.682;18.510;2023-06-26T14:50:26;7.90;;;4.60;;
20966;SDS011;10642;50.682;18.510;2023-06-26T14:52:53;5.53;;;4.33;;
20966;SDS011;10642;50.682;18.510;2023-06-26T14:55:20;4.83;;;3.73;;
20966;SDS011;10642;50.682;18.510;2023-06-26T14:57:47;6.33;;;3.90;;
20966;SDS011;10642;50.682;18.510;2023-06-26T15:00:15;8.83;;;4.00;;
20966;SDS011;10642;50.682;18.510;2023-06-26T15:02:42;5.60;;;3.70;;
20966;SDS011;10642;50.682;18.510;2023-06-26T15:05:09;6.43;;;4.03;;
20966;SDS011;10642;50.682;18.510;2023-06-26T15:07:36;4.83;;;3.87;;
20966;SDS011;10642;50.682;18.510;2023-06-26T15:10:03;12.07;;;4.43;;
20966;SDS011;10642;50.682;18.510;2023-06-26T15:12:30;5.67;;;3.73;;